createdAt,value
2019-06-15T00:01:35.991Z,100.00
2019-06-15T00:04:06.679Z,99.58
2019-06-15T00:06:37.196Z,98.54
2019-06-15T00:09:08.872Z,97.57
2019-06-15T00:11:39.411Z,96.24
2019-06-15T00:14:09.987Z,95.37
2019-06-15T00:16:41.015Z,95.98
2019-06-15T00:19:11.922Z,96.03
2019-06-15T00:21:42.442Z,96.47
2019-06-15T00:24:12.938Z,97.38
2019-06-15T00:26:43.465Z,97.21
2019-06-15T00:29:14.851Z,97.63
2019-06-15T00:31:45.406Z,97.72
2019-06-15T00:34:16.961Z,98.88
2019-06-15T00:36:47.511Z,100.00
2019-06-15T00:39:18.013Z,100.00
2019-06-15T00:41:48.534Z,100.00
2019-06-15T00:44:19.086Z,100.00
2019-06-15T00:46:49.610Z,100.00
2019-06-15T00:49:20.101Z,100.00
2019-06-15T00:51:50.623Z,100.00
2019-06-15T00:54:21.139Z,100.00
2019-06-15T00:56:51.970Z,100.00
2019-06-15T00:59:23.257Z,100.00
2019-06-15T01:01:54.310Z,100.00
2019-06-15T01:04:24.834Z,100.00
2019-06-15T01:06:55.393Z,100.00
2019-06-15T01:09:25.934Z,100.00
2019-06-15T01:11:56.539Z,100.00
2019-06-15T01:14:27.265Z,99.75
2019-06-15T01:17:02.668Z,99.37
2019-06-15T01:19:36.108Z,100.00
2019-06-15T01:22:06.656Z,100.00
2019-06-15T01:24:37.177Z,100.00
2019-06-15T01:27:07.747Z,100.00
2019-06-15T01:29:38.791Z,100.00
2019-06-15T01:32:09.477Z,100.00
2019-06-15T01:34:40.101Z,100.00
2019-06-15T01:37:10.667Z,100.00
2019-06-15T01:39:41.167Z,100.00
2019-06-15T01:42:11.710Z,100.00
2019-06-15T01:44:42.230Z,100.00
2019-06-15T01:47:12.806Z,100.00
2019-06-15T01:49:43.372Z,100.00
2019-06-15T01:52:13.914Z,100.00
2019-06-15T01:54:44.431Z,100.00
2019-06-15T01:57:15.038Z,100.00
2019-06-15T01:59:45.561Z,100.00
2019-06-15T02:02:16.506Z,100.00
2019-06-15T02:04:47.102Z,100.00
2019-06-15T02:07:17.641Z,100.00
2019-06-15T02:09:48.641Z,100.00
2019-06-15T02:12:19.273Z,100.00
2019-06-15T02:14:49.750Z,100.00
2019-06-15T02:17:20.289Z,100.00
2019-06-15T02:19:51.163Z,100.00
2019-06-15T02:22:21.702Z,100.00
2019-06-15T02:24:52.649Z,100.00
2019-06-15T02:27:23.814Z,100.00
2019-06-15T02:29:54.311Z,100.00
2019-06-15T02:32:25.194Z,100.00
2019-06-15T02:34:55.924Z,100.00
2019-06-15T02:37:27.476Z,100.00
2019-06-15T02:39:59.389Z,100.00
2019-06-15T02:42:30.072Z,100.00
2019-06-15T02:45:01.619Z,100.00
2019-06-15T02:47:33.314Z,100.00
2019-06-15T02:50:04.288Z,100.00
2019-06-15T02:52:34.875Z,100.00
2019-06-15T02:55:06.041Z,100.00
2019-06-15T02:57:36.794Z,100.00
2019-06-15T03:00:09.177Z,100.00
2019-06-15T03:02:39.700Z,100.00
2019-06-15T03:05:10.766Z,100.00
2019-06-15T03:07:41.466Z,100.00
2019-06-15T03:10:12.807Z,100.00
2019-06-15T03:12:43.446Z,100.00
2019-06-15T03:15:15.381Z,100.00
2019-06-15T03:17:46.086Z,100.00
2019-06-15T03:20:16.735Z,100.00
2019-06-15T03:22:47.229Z,100.00
2019-06-15T03:25:18.785Z,100.00
2019-06-15T03:27:49.333Z,100.00
2019-06-15T03:30:20.314Z,100.00
2019-06-15T03:32:50.896Z,100.00
2019-06-15T03:35:22.073Z,100.00
2019-06-15T03:37:52.588Z,100.00
2019-06-15T03:40:24.429Z,100.00
2019-06-15T03:42:55.338Z,100.00
2019-06-15T03:45:26.227Z,100.00
2019-06-15T03:47:56.799Z,100.00
2019-06-15T03:50:27.393Z,100.00
2019-06-15T03:52:57.881Z,100.00
2019-06-15T03:55:28.681Z,100.00
2019-06-15T03:57:59.190Z,100.00
2019-06-15T04:01:01.979Z,100.00
2019-06-15T04:03:32.618Z,100.00
2019-06-15T04:06:03.096Z,100.00
2019-06-15T04:08:33.781Z,100.00
2019-06-15T04:11:04.534Z,100.00
2019-06-15T04:13:35.042Z,100.00
2019-06-15T04:16:06.086Z,100.00
2019-06-15T04:18:36.664Z,100.00
2019-06-15T04:21:07.151Z,99.89
2019-06-15T04:23:37.666Z,99.81
2019-06-15T04:26:08.518Z,99.61
2019-06-15T04:28:39.082Z,100.00
2019-06-15T04:31:10.152Z,100.00
2019-06-15T04:33:40.639Z,98.96
2019-06-15T04:36:11.181Z,100.00
2019-06-15T04:38:42.147Z,100.00
2019-06-15T04:41:15.772Z,100.00
2019-06-15T04:43:46.308Z,99.71
2019-06-15T04:46:17.316Z,98.24
2019-06-15T04:48:47.780Z,95.76
2019-06-15T04:51:18.389Z,94.55
2019-06-15T04:53:50.247Z,92.96
2019-06-15T04:56:20.730Z,93.83
2019-06-15T04:58:51.255Z,93.17
2019-06-15T05:01:21.734Z,92.77
2019-06-15T05:03:52.597Z,93.03
2019-06-15T05:06:23.270Z,92.13
2019-06-15T05:08:53.742Z,90.99
2019-06-15T05:11:24.237Z,91.94
2019-06-15T05:13:54.792Z,90.68
2019-06-15T05:16:25.672Z,90.18
2019-06-15T05:18:56.603Z,88.10
2019-06-15T05:21:27.585Z,87.71
2019-06-15T05:23:58.202Z,87.92
2019-06-15T05:26:28.685Z,87.15
2019-06-15T05:28:59.231Z,85.32
2019-06-15T05:31:30.085Z,83.94
2019-06-15T05:34:00.553Z,84.22
2019-06-15T05:36:31.124Z,81.68
2019-06-15T05:39:01.606Z,81.37
2019-06-15T05:41:33.447Z,80.95
2019-06-15T05:44:03.975Z,80.99
2019-06-15T05:46:34.456Z,81.07
2019-06-15T05:49:05.307Z,78.83
2019-06-15T05:51:35.881Z,78.64
2019-06-15T05:54:06.363Z,78.31
2019-06-15T05:56:37.243Z,79.00
2019-06-15T05:59:07.767Z,75.64
2019-06-15T06:01:38.262Z,73.24
2019-06-15T06:04:08.721Z,73.21
2019-06-15T06:06:39.661Z,76.42
2019-06-15T06:09:10.189Z,75.80
2019-06-15T06:11:40.682Z,73.26
2019-06-15T06:14:11.210Z,71.39
2019-06-15T06:16:42.191Z,70.28
2019-06-15T06:19:12.694Z,69.85
2019-06-15T06:21:43.738Z,69.80
2019-06-15T06:24:14.711Z,68.74
2019-06-15T06:26:45.302Z,69.34
2019-06-15T06:29:15.832Z,69.67
2019-06-15T06:31:46.723Z,71.02
2019-06-15T06:34:17.621Z,69.67
2019-06-15T06:36:48.641Z,67.67
2019-06-15T06:39:19.632Z,66.59
2019-06-15T06:41:51.113Z,67.01
2019-06-15T06:44:21.601Z,67.29
2019-06-15T06:46:52.084Z,65.59
2019-06-15T06:49:22.599Z,66.57
2019-06-15T06:51:53.932Z,66.39
2019-06-15T06:54:25.202Z,66.64
2019-06-15T06:56:56.044Z,64.96
2019-06-15T06:59:27.019Z,60.46
2019-06-15T07:01:57.495Z,57.79
2019-06-15T07:04:28.481Z,54.50
2019-06-15T07:06:59.670Z,53.52
2019-06-15T07:09:30.323Z,50.77
2019-06-15T07:12:00.891Z,51.99
2019-06-15T07:14:31.365Z,49.05
2019-06-15T07:17:01.937Z,46.16
2019-06-15T07:19:32.432Z,46.90
2019-06-15T07:22:03.129Z,46.90
2019-06-15T07:24:33.582Z,47.46
2019-06-15T07:27:04.250Z,47.19
2019-06-15T07:29:34.734Z,45.68
2019-06-15T07:32:05.195Z,44.16
2019-06-15T07:34:36.183Z,42.83
2019-06-15T07:37:06.840Z,43.30
2019-06-15T07:39:37.344Z,44.14
2019-06-15T07:42:08.717Z,44.30
2019-06-15T07:44:39.697Z,44.77
2019-06-15T07:47:10.174Z,45.02
2019-06-15T07:49:43.659Z,45.27
2019-06-15T07:52:14.628Z,45.33
2019-06-15T07:54:45.880Z,42.83
2019-06-15T07:57:16.759Z,42.42
2019-06-15T07:59:47.738Z,42.73
2019-06-15T08:02:18.206Z,40.82
2019-06-15T08:04:48.707Z,41.96
2019-06-15T08:07:19.208Z,40.16
2019-06-15T08:09:50.194Z,42.77
2019-06-15T08:12:20.673Z,43.30
2019-06-15T08:14:51.239Z,42.56
2019-06-15T08:17:21.708Z,40.95
2019-06-15T08:19:52.160Z,42.15
2019-06-15T08:22:22.688Z,42.52
2019-06-15T08:24:53.520Z,41.54
2019-06-15T08:27:23.976Z,41.74
2019-06-15T08:29:54.549Z,44.28
2019-06-15T08:32:25.034Z,43.52
2019-06-15T08:34:55.513Z,40.40
2019-06-15T08:37:26.424Z,40.51
2019-06-15T08:39:56.907Z,40.58
2019-06-15T08:42:28.531Z,40.68
2019-06-15T08:44:59.597Z,41.99
2019-06-15T08:47:30.074Z,36.19
2019-06-15T08:50:00.535Z,36.69
2019-06-15T08:52:31.047Z,36.94
2019-06-15T08:55:01.525Z,34.85
2019-06-15T08:57:32.364Z,35.84
2019-06-15T09:00:03.623Z,33.33
2019-06-15T09:02:36.931Z,33.53
2019-06-15T09:05:08.462Z,35.07
2019-06-15T09:07:39.327Z,35.13
2019-06-15T09:10:10.894Z,35.97
2019-06-15T09:12:41.477Z,36.25
2019-06-15T09:15:12.642Z,34.24
2019-06-15T09:17:43.098Z,36.77
2019-06-15T09:20:14.507Z,35.34
2019-06-15T09:22:45.035Z,35.71
2019-06-15T09:25:15.670Z,34.82
2019-06-15T09:27:46.131Z,34.33
2019-06-15T09:30:17.363Z,33.60
2019-06-15T09:32:47.703Z,34.67
2019-06-15T09:35:18.143Z,34.71
2019-06-15T09:37:48.531Z,35.49
2019-06-15T09:40:21.242Z,34.73
2019-06-15T09:42:52.551Z,36.45
2019-06-15T09:45:22.960Z,36.78
2019-06-15T09:47:53.296Z,36.28
2019-06-15T09:50:23.723Z,35.48
2019-06-15T09:52:54.070Z,37.59
2019-06-15T09:55:25.074Z,37.57
2019-06-15T09:57:55.430Z,36.05
2019-06-15T10:00:25.763Z,37.11
2019-06-15T10:02:56.088Z,35.01
2019-06-15T10:05:26.531Z,36.19
2019-06-15T10:07:56.887Z,37.18
2019-06-15T10:10:27.211Z,37.56
2019-06-15T10:12:57.589Z,33.92
2019-06-15T10:15:27.915Z,33.93
2019-06-15T10:17:58.255Z,35.36
2019-06-15T10:20:28.680Z,33.73
2019-06-15T10:22:59.010Z,34.55
2019-06-15T10:25:29.926Z,32.38
2019-06-15T10:28:00.919Z,33.04
2019-06-15T10:30:31.807Z,31.38
2019-06-15T10:33:02.159Z,30.20
2019-06-15T10:35:32.922Z,31.58
2019-06-15T10:38:03.319Z,30.41
2019-06-15T10:40:34.311Z,32.47
2019-06-15T10:43:06.147Z,33.01
2019-06-15T10:45:37.121Z,32.44
2019-06-15T10:48:07.468Z,32.81
2019-06-15T10:50:38.422Z,32.58
2019-06-15T10:53:08.854Z,34.09
2019-06-15T10:55:39.176Z,35.14
2019-06-15T10:58:10.108Z,32.48
2019-06-15T11:00:40.472Z,34.97
2019-06-15T11:03:11.383Z,34.72
2019-06-15T11:05:41.712Z,31.56
2019-06-15T11:08:12.127Z,34.87
2019-06-15T11:10:56.301Z,33.76
2019-06-15T11:13:26.788Z,36.13
2019-06-15T11:15:58.279Z,38.88
2019-06-15T11:18:29.120Z,36.13
2019-06-15T11:20:59.544Z,36.04
2019-06-15T11:23:29.876Z,33.36
2019-06-15T11:26:00.218Z,33.74
2019-06-15T11:28:31.219Z,34.94
2019-06-15T11:31:01.628Z,32.91
2019-06-15T11:33:32.555Z,32.93
2019-06-15T11:36:02.925Z,33.36
2019-06-15T11:38:33.262Z,32.89
2019-06-15T11:41:03.730Z,30.59
2019-06-15T11:43:35.869Z,32.16
2019-06-15T11:46:06.195Z,30.27
2019-06-15T11:48:36.554Z,31.40
2019-06-15T11:51:06.925Z,31.39
2019-06-15T11:53:37.846Z,31.00
2019-06-15T11:56:08.610Z,31.54
2019-06-15T11:58:39.027Z,27.78
2019-06-15T12:01:12.335Z,29.12
2019-06-15T12:03:43.248Z,28.73
2019-06-15T12:06:14.226Z,30.93
2019-06-15T12:08:45.200Z,29.26
2019-06-15T12:11:15.628Z,29.20
2019-06-15T12:13:46.638Z,29.92
2019-06-15T12:16:17.023Z,29.37
2019-06-15T12:18:47.354Z,29.85
2019-06-15T12:21:18.321Z,28.10
2019-06-15T12:23:48.659Z,28.49
2019-06-15T12:26:19.595Z,27.45
2019-06-15T12:28:51.279Z,27.26
2019-06-15T12:31:22.201Z,27.26
2019-06-15T12:33:52.557Z,28.29
2019-06-15T12:36:22.923Z,26.57
2019-06-15T12:38:53.840Z,25.44
2019-06-15T12:41:24.751Z,27.51
2019-06-15T12:43:55.876Z,25.60
2019-06-15T12:46:26.275Z,27.34
2019-06-15T12:48:56.644Z,27.27
2019-06-15T12:51:27.013Z,26.59
2019-06-15T12:53:57.344Z,26.20
2019-06-15T12:56:28.264Z,28.96
2019-06-15T12:58:59.604Z,27.60
2019-06-15T13:01:30.526Z,26.19
2019-06-15T13:04:00.849Z,24.91
2019-06-15T13:06:31.218Z,26.25
2019-06-15T13:09:01.541Z,25.38
2019-06-15T13:11:32.463Z,26.70
2019-06-15T13:14:03.004Z,25.06
2019-06-15T13:16:39.336Z,24.73
2019-06-15T13:19:05.496Z,25.88
2019-06-15T13:21:36.288Z,26.97
2019-06-15T13:24:07.340Z,27.79
2019-06-15T13:26:37.667Z,27.04
2019-06-15T13:29:08.088Z,26.83
2019-06-15T13:31:39.007Z,26.30
2019-06-15T13:34:09.912Z,27.61
2019-06-15T13:36:42.802Z,26.88
2019-06-15T13:39:13.718Z,26.60
2019-06-15T13:41:44.061Z,24.43
2019-06-15T13:44:16.137Z,24.57
2019-06-15T13:46:47.056Z,26.03
2019-06-15T13:49:17.981Z,24.90
2019-06-15T13:51:48.381Z,25.59
2019-06-15T13:54:19.278Z,26.28
2019-06-15T13:56:50.198Z,24.95
2019-06-15T13:59:21.503Z,26.65
2019-06-15T14:01:51.869Z,26.20
2019-06-15T14:04:22.195Z,24.71
2019-06-15T14:06:52.696Z,25.04
2019-06-15T14:09:23.023Z,27.07
2019-06-15T14:11:53.369Z,26.19
2019-06-15T14:14:23.816Z,25.01
2019-06-15T14:16:54.191Z,25.59
2019-06-15T14:19:24.527Z,27.45
2019-06-15T14:21:54.919Z,27.53
2019-06-15T14:24:25.268Z,28.14
2019-06-15T14:26:55.606Z,24.45
2019-06-15T14:29:26.617Z,26.24
2019-06-15T14:31:57.707Z,26.44
2019-06-15T14:34:28.573Z,25.83
2019-06-15T14:36:58.942Z,24.65
2019-06-15T14:39:29.268Z,23.30
2019-06-15T14:42:00.185Z,22.08
2019-06-15T14:44:31.442Z,22.04
2019-06-15T14:47:02.408Z,20.64
2019-06-15T14:49:33.322Z,19.97
2019-06-15T14:52:05.369Z,22.67
2019-06-15T14:54:37.325Z,23.09
2019-06-15T14:57:08.483Z,20.15
2019-06-15T14:59:52.000Z,19.44
2019-06-15T15:02:14.278Z,19.72
2019-06-15T15:04:44.762Z,20.16
2019-06-15T15:07:16.990Z,19.10
2019-06-15T15:09:50.041Z,19.10
2019-06-15T15:12:20.790Z,18.72
2019-06-15T15:14:51.802Z,19.12
2019-06-15T15:17:22.738Z,17.77
2019-06-15T15:19:53.740Z,18.47
2019-06-15T15:22:26.806Z,18.01
2019-06-15T15:24:57.353Z,17.59
2019-06-15T15:27:28.374Z,17.79
2019-06-15T15:29:59.389Z,18.89
2019-06-15T15:32:31.609Z,18.13
2019-06-15T15:35:06.577Z,19.08
2019-06-15T15:37:37.892Z,18.23
2019-06-15T15:40:09.896Z,19.37
2019-06-15T15:42:40.798Z,20.96
2019-06-15T15:45:12.643Z,20.96
2019-06-15T15:47:43.611Z,23.09
2019-06-15T15:50:17.496Z,25.04
2019-06-15T15:52:46.450Z,26.60
2019-06-15T15:55:17.463Z,28.24
2019-06-15T15:57:48.262Z,29.71
2019-06-15T16:00:31.616Z,29.18
2019-06-15T16:03:02.073Z,29.74
2019-06-15T16:05:32.545Z,31.18
2019-06-15T16:08:02.963Z,31.12
2019-06-15T16:10:33.859Z,31.60
2019-06-15T16:13:06.509Z,31.00
2019-06-15T16:15:37.856Z,32.13
2019-06-15T16:18:08.200Z,33.17
2019-06-15T16:20:38.574Z,31.81
2019-06-15T16:23:09.181Z,31.81
2019-06-15T16:25:40.563Z,32.71
2019-06-15T16:28:10.995Z,31.43
2019-06-15T16:31:03.821Z,31.66
2019-06-15T16:33:16.227Z,32.70
2019-06-15T16:35:46.892Z,32.44
2019-06-15T16:38:19.552Z,32.61
2019-06-15T16:40:49.296Z,33.45
2019-06-15T16:43:19.663Z,33.17
2019-06-15T16:45:50.295Z,33.89
2019-06-15T16:48:26.115Z,34.97
2019-06-15T16:50:57.795Z,34.80
2019-06-15T16:53:28.392Z,35.94
2019-06-15T16:55:58.781Z,34.82
2019-06-15T16:58:29.268Z,34.46
2019-06-15T17:00:59.788Z,34.68
2019-06-15T17:03:30.133Z,36.30
2019-06-15T17:06:03.352Z,36.40
2019-06-15T17:08:32.614Z,36.44
2019-06-15T17:11:02.979Z,36.46
2019-06-15T17:13:33.367Z,37.61
2019-06-15T17:16:05.938Z,38.20
2019-06-15T17:18:36.496Z,38.23
2019-06-15T17:21:07.331Z,39.44
2019-06-15T17:23:37.909Z,40.45
2019-06-15T17:26:08.242Z,41.63
2019-06-15T17:28:38.707Z,41.79
2019-06-15T17:31:09.097Z,42.17
2019-06-15T17:33:39.734Z,43.08
2019-06-15T17:36:10.069Z,45.72
2019-06-15T17:38:40.501Z,46.53
2019-06-15T17:41:10.859Z,49.92
2019-06-15T17:43:41.228Z,52.50
2019-06-15T17:46:11.652Z,52.51
2019-06-15T17:48:42.018Z,53.15
2019-06-15T17:51:12.392Z,55.19
2019-06-15T17:53:42.772Z,54.90
2019-06-15T17:56:13.219Z,56.83
2019-06-15T17:58:46.199Z,50.43
2019-06-15T18:01:17.169Z,49.90
2019-06-15T18:03:54.266Z,48.46
2019-06-15T18:06:19.949Z,49.48
2019-06-15T18:08:50.341Z,51.72
2019-06-15T18:11:20.672Z,48.69
2019-06-15T18:13:51.040Z,51.42
2019-06-15T18:16:21.443Z,55.40
2019-06-15T18:18:51.859Z,56.52
2019-06-15T18:21:22.237Z,57.69
2019-06-15T18:23:52.642Z,58.61
2019-06-15T18:26:22.980Z,58.45
2019-06-15T18:28:53.423Z,56.88
2019-06-15T18:31:23.866Z,58.29
2019-06-15T18:34:06.449Z,52.25
2019-06-15T18:36:26.700Z,51.51
2019-06-15T18:38:57.699Z,51.59
2019-06-15T18:41:28.170Z,51.29
2019-06-15T18:43:58.579Z,51.47
2019-06-15T18:46:29.011Z,51.15
2019-06-15T18:48:59.413Z,51.54
2019-06-15T18:51:29.769Z,53.90
2019-06-15T18:54:00.512Z,55.75
2019-06-15T18:56:30.996Z,57.31
2019-06-15T18:59:01.344Z,58.07
2019-06-15T19:01:31.786Z,58.41
2019-06-15T19:04:06.850Z,58.53
2019-06-15T19:06:37.168Z,58.29
2019-06-15T19:09:10.500Z,60.47
2019-06-15T19:11:41.076Z,61.16
2019-06-15T19:14:11.653Z,60.25
2019-06-15T19:16:42.452Z,60.35
2019-06-15T19:19:13.585Z,61.09
2019-06-15T19:21:51.760Z,60.44
2019-06-15T19:24:22.308Z,60.44
2019-06-15T19:26:52.912Z,60.30
2019-06-15T19:29:23.369Z,58.52
2019-06-15T19:31:54.338Z,60.30
2019-06-15T19:34:41.077Z,61.52
2019-06-15T19:36:58.465Z,62.84
2019-06-15T19:39:29.047Z,67.00
2019-06-15T19:41:59.432Z,69.61
2019-06-15T19:44:30.497Z,69.24
2019-06-15T19:47:01.109Z,69.34
2019-06-15T19:49:31.736Z,73.77
2019-06-15T19:52:02.206Z,72.55
2019-06-15T19:54:32.822Z,70.36
2019-06-15T19:57:03.402Z,70.84
2019-06-15T19:59:36.448Z,75.71
2019-06-15T20:02:06.796Z,76.12
2019-06-15T20:04:39.456Z,78.30
2019-06-15T20:07:11.617Z,77.58
2019-06-15T20:09:42.005Z,76.37
2019-06-15T20:12:19.002Z,76.06
2019-06-15T20:14:46.340Z,77.03
2019-06-15T20:17:23.106Z,75.97
2019-06-15T20:19:58.731Z,74.17
2019-06-15T20:22:46.784Z,74.68
2019-06-15T20:25:21.532Z,71.18
2019-06-15T20:27:52.064Z,71.54
2019-06-15T20:30:22.623Z,71.18
2019-06-15T20:32:53.152Z,71.51
2019-06-15T20:35:26.202Z,74.02
2019-06-15T20:37:56.052Z,73.30
2019-06-15T20:40:26.837Z,74.92
2019-06-15T20:42:57.437Z,75.38
2019-06-15T20:45:31.315Z,76.11
2019-06-15T20:47:59.943Z,76.40
2019-06-15T20:50:30.440Z,79.10
2019-06-15T20:53:00.917Z,80.57
2019-06-15T20:55:31.261Z,80.90
2019-06-15T20:58:01.603Z,81.25
2019-06-15T21:00:31.991Z,80.86
2019-06-15T21:03:02.333Z,79.64
2019-06-15T21:05:38.965Z,78.55
2019-06-15T21:08:06.817Z,77.78
2019-06-15T21:10:37.650Z,77.82
2019-06-15T21:13:08.026Z,77.87
2019-06-15T21:15:41.519Z,78.50
2019-06-15T21:18:11.971Z,77.40
2019-06-15T21:20:42.491Z,76.20
2019-06-15T21:23:12.977Z,77.20
2019-06-15T21:25:43.322Z,78.15
2019-06-15T21:28:13.721Z,79.40
2019-06-15T21:30:46.857Z,82.10
2019-06-15T21:33:16.256Z,83.31
2019-06-15T21:35:52.381Z,83.81
2019-06-15T21:38:18.966Z,83.34
2019-06-15T21:40:49.407Z,83.81
2019-06-15T21:43:19.801Z,85.07
2019-06-15T21:45:50.310Z,85.41
2019-06-15T21:48:20.648Z,85.32
2019-06-15T21:50:51.030Z,85.09
2019-06-15T21:53:21.493Z,85.53
2019-06-15T21:55:51.932Z,85.35
2019-06-15T21:58:22.331Z,83.91
2019-06-15T22:01:17.475Z,83.06
2019-06-15T22:03:47.857Z,82.26
2019-06-15T22:06:19.500Z,81.81
2019-06-15T22:08:49.898Z,81.33
2019-06-15T22:11:20.438Z,80.95
2019-06-15T22:13:50.793Z,81.67
2019-06-15T22:16:21.392Z,82.63
2019-06-15T22:18:51.801Z,82.92
2019-06-15T22:21:24.840Z,84.38
2019-06-15T22:23:55.871Z,87.56
2019-06-15T22:26:26.797Z,91.44
2019-06-15T22:28:57.320Z,92.10
2019-06-15T22:31:28.129Z,91.72
2019-06-15T22:33:58.878Z,91.42
2019-06-15T22:36:29.216Z,90.81
2019-06-15T22:38:59.996Z,90.70
2019-06-15T22:41:30.520Z,89.51
2019-06-15T22:44:00.878Z,89.63
2019-06-15T22:46:31.251Z,90.29
2019-06-15T22:49:01.817Z,91.45
2019-06-15T22:51:32.382Z,92.25
2019-06-15T22:54:02.879Z,93.14
2019-06-15T22:56:33.235Z,92.93
2019-06-15T22:59:06.119Z,91.50
2019-06-15T23:01:35.846Z,90.38
2019-06-15T23:04:06.734Z,88.97
2019-06-15T23:06:42.954Z,87.06
2019-06-15T23:09:10.944Z,85.41
2019-06-15T23:11:41.674Z,86.44
2019-06-15T23:14:12.002Z,87.25
2019-06-15T23:16:42.356Z,89.28
2019-06-15T23:19:13.095Z,92.85
2019-06-15T23:21:43.484Z,96.35
2019-06-15T23:24:16.430Z,97.88
2019-06-15T23:26:46.266Z,98.58
2019-06-15T23:29:16.842Z,99.50
2019-06-15T23:31:47.415Z,99.08
2019-06-15T23:34:17.819Z,96.95
2019-06-15T23:36:56.378Z,95.65
2019-06-15T23:39:21.934Z,94.07
2019-06-15T23:41:52.324Z,92.89
2019-06-15T23:44:23.075Z,91.36
2019-06-15T23:46:53.672Z,91.08
2019-06-15T23:49:24.076Z,91.07
2019-06-15T23:51:54.366Z,90.61
2019-06-15T23:54:24.751Z,90.52
2019-06-15T23:56:56.935Z,89.41
2019-06-15T23:59:27.607Z,89.49
